Time;durP1;ratioP1;P1;durP2;ratioP2;P2;SDS_P1;SDS_P2;PMS_P1;PMS_P2;Temp;Humidity;BMP_temperature;BMP_pressure;BME280_temperature;BME280_humidity;BME280_pressure;Samples;Min_cycle;Max_cycle;Signal;HPM_P1;HPM_P2
2023/10/30 00:03:04;;;;;;;11.10;4.30;;;;;;;10.60;100.00;98169.13;109485;1253;60715;-62
2023/10/30 00:05:52;;;;;;;11.70;3.70;;;;;;;10.63;100.00;98163.35;109548;1254;60239;-63
2023/10/30 00:08:39;;;;;;;10.10;4.00;;;;;;;10.64;100.00;98165.57;109510;1254;73234;-63
2023/10/30 00:11:27;;;;;;;9.30;3.90;;;;;;;10.68;100.00;98167.60;109540;1254;67768;-63
2023/10/30 00:14:14;;;;;;;10.40;3.70;;;;;;;10.70;100.00;98166.64;109572;1254;73654;-64
2023/10/30 00:17:02;;;;;;;9.70;3.80;;;;;;;10.69;100.00;98159.83;109522;1253;59686;-64
2023/10/30 00:19:50;;;;;;;10.00;4.00;;;;;;;10.68;100.00;98160.83;109373;1254;61362;-65
2023/10/30 00:22:38;;;;;;;7.60;3.80;;;;;;;10.64;100.00;98158.98;109225;1254;70984;-63
2023/10/30 00:25:25;;;;;;;9.60;3.60;;;;;;;10.59;100.00;98156.35;109352;1253;67929;-62
2023/10/30 00:28:12;;;;;;;9.90;3.80;;;;;;;10.53;100.00;98155.52;109324;1254;72136;-64
2023/10/30 00:31:01;;;;;;;8.70;3.60;;;;;;;10.52;100.00;98151.35;109345;1254;60703;-62
2023/10/30 00:33:49;;;;;;;10.00;3.90;;;;;;;10.51;100.00;98161.98;109366;1254;61308;-63
2023/10/30 00:36:36;;;;;;;9.50;3.70;;;;;;;10.50;100.00;98162.44;109518;1256;71284;-61
2023/10/30 00:39:24;;;;;;;8.50;3.30;;;;;;;10.45;100.00;98156.21;109453;1257;66725;-62
2023/10/30 00:42:12;;;;;;;9.00;3.70;;;;;;;10.47;100.00;98162.21;109367;1254;72843;-62
2023/10/30 00:44:59;;;;;;;7.10;3.10;;;;;;;10.48;100.00;98161.80;109341;1253;59660;-62
2023/10/30 00:47:47;;;;;;;8.30;3.40;;;;;;;10.46;100.00;98160.91;109503;1253;61307;-62
2023/10/30 00:50:35;;;;;;;7.60;2.90;;;;;;;10.43;100.00;98164.83;109499;1256;73301;-62
2023/10/30 00:53:22;;;;;;;8.50;3.30;;;;;;;10.40;100.00;98170.58;109510;1253;67981;-60
2023/10/30 00:56:10;;;;;;;9.30;3.60;;;;;;;10.37;100.00;98171.09;109519;1256;73939;-61
2023/10/30 00:58:58;;;;;;;8.50;3.30;;;;;;;10.35;100.00;98165.28;109512;1253;59777;-61
2023/10/30 01:01:45;;;;;;;8.30;3.00;;;;;;;10.32;100.00;98166.58;109533;1253;59007;-62
2023/10/30 01:04:33;;;;;;;8.40;3.60;;;;;;;10.31;100.00;98167.96;109349;1254;72422;-63
2023/10/30 01:07:21;;;;;;;7.80;3.10;;;;;;;10.29;100.00;98169.47;109328;1253;66621;-63
2023/10/30 01:10:09;;;;;;;7.70;2.80;;;;;;;10.26;100.00;98166.00;109493;1253;74093;-61
2023/10/30 01:12:57;;;;;;;7.10;2.90;;;;;;;10.22;100.00;98170.28;109281;1253;58413;-63
2023/10/30 01:15:44;;;;;;;9.20;3.00;;;;;;;10.23;100.00;98174.31;109363;1254;60427;-63
2023/10/30 01:18:32;;;;;;;10.10;3.20;;;;;;;10.21;100.00;98170.17;109362;1254;72339;-62
2023/10/30 01:21:21;;;;;;;9.20;3.00;;;;;;;10.21;100.00;98177.34;109364;1253;68059;-62
2023/10/30 01:24:09;;;;;;;8.40;3.20;;;;;;;10.19;100.00;98182.54;109341;1254;73962;-62
2023/10/30 01:26:56;;;;;;;7.30;2.90;;;;;;;10.16;100.00;98184.99;109534;1253;57950;-63
2023/10/30 01:29:44;;;;;;;7.20;3.00;;;;;;;10.15;100.00;98189.50;109574;1254;59031;-62
2023/10/30 01:32:31;;;;;;;6.80;3.00;;;;;;;10.11;100.00;98186.44;109533;1254;72228;-62
2023/10/30 01:35:19;;;;;;;7.70;3.10;;;;;;;10.10;100.00;98189.46;109580;1253;67926;-63
2023/10/30 01:38:07;;;;;;;7.70;2.60;;;;;;;10.10;100.00;98193.58;108773;1253;1002404;-64
2023/10/30 01:40:55;;;;;;;8.20;2.60;;;;;;;10.10;100.00;98194.14;109567;1254;58297;-62
2023/10/30 01:43:43;;;;;;;7.00;2.70;;;;;;;10.07;100.00;98193.30;109367;1256;59124;-63
2023/10/30 01:46:30;;;;;;;6.40;2.40;;;;;;;10.07;100.00;98195.13;109426;1253;73169;-64
2023/10/30 01:49:18;;;;;;;7.30;2.40;;;;;;;10.06;100.00;98194.17;109411;1254;69108;-62
2023/10/30 01:52:06;;;;;;;8.90;2.50;;;;;;;10.05;100.00;98190.87;109360;1253;71733;-62
2023/10/30 01:54:54;;;;;;;6.70;2.80;;;;;;;10.03;100.00;98185.63;109413;1253;59720;-62
2023/10/30 01:57:42;;;;;;;7.50;2.10;;;;;;;10.06;100.00;98191.35;109388;1255;57999;-61
2023/10/30 02:00:29;;;;;;;7.50;2.50;;;;;;;10.05;100.00;98189.27;109349;1254;72105;-62
2023/10/30 02:03:17;;;;;;;8.00;2.50;;;;;;;10.04;100.00;98192.03;109384;1254;67463;-62
2023/10/30 02:06:05;;;;;;;8.10;2.50;;;;;;;10.07;100.00;98196.77;109361;1254;72416;-64
2023/10/30 02:08:57;;;;;;;6.70;2.10;;;;;;;10.06;100.00;98197.69;109427;1253;58086;-62
2023/10/30 02:11:44;;;;;;;6.80;2.20;;;;;;;10.07;100.00;98205.61;109592;1254;60434;-62
2023/10/30 02:14:33;;;;;;;9.60;2.80;;;;;;;10.05;100.00;98196.92;109259;1253;72329;-63
2023/10/30 02:17:21;;;;;;;7.00;2.00;;;;;;;10.05;100.00;98192.52;109409;1254;67709;-61
2023/10/30 02:20:12;;;;;;;6.80;2.30;;;;;;;10.05;100.00;98193.38;109257;1253;71161;-63
2023/10/30 02:23:00;;;;;;;5.80;1.80;;;;;;;10.04;100.00;98194.59;109382;1253;58002;-61
2023/10/30 02:25:48;;;;;;;6.00;1.90;;;;;;;10.01;100.00;98199.41;109533;1253;61173;-62
2023/10/30 02:28:35;;;;;;;6.40;2.30;;;;;;;10.01;100.00;98199.44;109541;1254;73231;-63
2023/10/30 02:31:25;;;;;;;6.30;1.90;;;;;;;10.02;100.00;98201.98;109411;1254;68842;-62
2023/10/30 02:34:13;;;;;;;5.80;1.80;;;;;;;10.02;100.00;98200.43;109383;1254;73636;-63
2023/10/30 02:37:02;;;;;;;5.90;2.20;;;;;;;10.01;100.00;98205.30;109552;1254;59329;-62
2023/10/30 02:39:50;;;;;;;7.80;2.10;;;;;;;9.99;100.00;98204.61;109530;1253;59015;-63
2023/10/30 02:42:39;;;;;;;5.80;1.90;;;;;;;10.01;100.00;98206.41;109565;1253;72970;-63
2023/10/30 02:45:27;;;;;;;6.80;1.80;;;;;;;10.03;100.00;98220.33;109561;1253;67832;-63
2023/10/30 02:48:14;;;;;;;7.40;1.80;;;;;;;10.03;100.00;98218.04;109415;1253;73529;-62
2023/10/30 02:51:02;;;;;;;5.60;1.70;;;;;;;10.03;100.00;98227.58;109506;1254;61085;-61
2023/10/30 02:53:50;;;;;;;5.70;1.90;;;;;;;10.04;100.00;98228.36;109403;1253;59131;-63
2023/10/30 02:56:38;;;;;;;7.80;2.50;;;;;;;10.05;100.00;98236.92;109412;1253;73077;-64
2023/10/30 02:59:26;;;;;;;5.50;1.80;;;;;;;10.07;100.00;98234.35;109512;1253;67790;-62
2023/10/30 03:02:13;;;;;;;6.20;1.90;;;;;;;10.05;100.00;98234.13;109503;1253;72705;-62
2023/10/30 03:05:02;;;;;;;5.90;1.60;;;;;;;10.04;100.00;98228.25;109329;1252;57087;-64
2023/10/30 03:07:50;;;;;;;6.00;1.90;;;;;;;10.02;100.00;98225.71;109297;1254;61334;-65
2023/10/30 03:10:38;;;;;;;6.20;1.90;;;;;;;10.03;100.00;98225.29;109482;1253;72374;-62
2023/10/30 03:13:25;;;;;;;5.80;1.90;;;;;;;10.04;100.00;98231.77;109358;1254;68630;-61
2023/10/30 03:16:13;;;;;;;8.00;1.80;;;;;;;10.03;100.00;98231.64;109396;1253;73008;-63
2023/10/30 03:19:01;;;;;;;6.00;1.80;;;;;;;10.02;100.00;98237.48;109468;1253;59399;-64
2023/10/30 03:21:49;;;;;;;6.90;1.70;;;;;;;10.01;100.00;98249.05;109452;1253;59458;-63
2023/10/30 03:24:36;;;;;;;6.00;1.80;;;;;;;10.01;100.00;98248.36;109458;1253;73262;-61
2023/10/30 03:27:24;;;;;;;6.60;1.80;;;;;;;10.00;100.00;98245.67;109177;1254;66735;-61
2023/10/30 03:30:12;;;;;;;6.40;1.70;;;;;;;9.98;100.00;98253.08;108562;1254;1002540;-63
2023/10/30 03:33:00;;;;;;;7.70;2.00;;;;;;;10.00;100.00;98262.14;109512;1253;60612;-63
2023/10/30 03:35:48;;;;;;;8.00;1.80;;;;;;;9.99;100.00;98265.60;109353;1253;59273;-64
2023/10/30 03:38:37;;;;;;;5.60;1.70;;;;;;;10.00;100.00;98271.91;109534;1253;70789;-63
2023/10/30 03:41:25;;;;;;;6.50;1.70;;;;;;;9.99;100.00;98268.55;109498;1253;67634;-66
2023/10/30 03:44:13;;;;;;;7.10;1.60;;;;;;;9.98;100.00;98270.13;109215;1254;73403;-62
2023/10/30 03:47:00;;;;;;;5.60;1.50;;;;;;;9.96;100.00;98270.48;109215;1253;59213;-62
2023/10/30 03:49:48;;;;;;;6.40;1.90;;;;;;;9.95;100.00;98279.63;107965;1253;1002895;-63
2023/10/30 03:52:36;;;;;;;6.20;2.00;;;;;;;9.94;100.00;98276.00;109532;1253;72368;-62
2023/10/30 03:55:26;;;;;;;5.10;1.60;;;;;;;9.93;100.00;98282.65;109352;1253;66900;-66
2023/10/30 03:58:14;;;;;;;5.60;1.50;;;;;;;9.91;100.00;98289.41;109356;1254;73277;-64
2023/10/30 04:01:07;;;;;;;6.20;2.00;;;;;;;9.91;100.00;98285.59;109309;1253;58201;-63
2023/10/30 04:03:55;;;;;;;5.50;1.90;;;;;;;9.89;100.00;98298.67;109466;1253;60385;-62
2023/10/30 04:06:43;;;;;;;7.70;1.90;;;;;;;9.87;100.00;98299.05;109482;1253;73293;-63
2023/10/30 04:09:32;;;;;;;4.90;1.60;;;;;;;9.88;100.00;98301.81;109485;1253;68238;-67
2023/10/30 04:12:21;;;;;;;5.40;1.80;;;;;;;9.88;100.00;98306.73;109210;1253;73658;-64
2023/10/30 04:15:09;;;;;;;5.70;1.50;;;;;;;9.89;100.00;98311.42;109441;1253;57992;-64
2023/10/30 04:17:56;;;;;;;5.40;1.60;;;;;;;9.89;100.00;98309.84;109313;1253;60350;-64
2023/10/30 04:20:45;;;;;;;5.00;1.50;;;;;;;9.89;100.00;98309.96;109349;1252;73035;-61
2023/10/30 04:23:33;;;;;;;7.20;1.70;;;;;;;9.86;100.00;98312.64;109446;1253;68320;-62
2023/10/30 04:26:22;;;;;;;8.10;1.70;;;;;;;9.87;100.00;98318.35;109448;1253;71638;-63
2023/10/30 04:29:09;;;;;;;5.90;1.80;;;;;;;9.86;100.00;98316.48;109430;1253;57328;-66
2023/10/30 04:31:57;;;;;;;5.50;1.70;;;;;;;9.86;100.00;98321.41;109320;1253;60084;-67
2023/10/30 04:34:45;;;;;;;5.90;1.90;;;;;;;9.87;100.00;98314.80;109363;1253;71463;-62
2023/10/30 04:37:32;;;;;;;6.70;1.70;;;;;;;9.88;100.00;98306.02;109378;1253;68121;-64
2023/10/30 04:40:21;;;;;;;6.10;1.70;;;;;;;9.88;100.00;98315.17;109325;1253;71469;-62
2023/10/30 04:43:09;;;;;;;5.40;1.40;;;;;;;9.89;100.00;98321.83;109383;1252;59311;-65
2023/10/30 04:45:56;;;;;;;5.90;1.70;;;;;;;9.89;100.00;98323.52;109458;1253;59036;-62
2023/10/30 04:48:44;;;;;;;5.60;1.90;;;;;;;9.87;100.00;98316.95;109336;1253;72369;-61
2023/10/30 04:51:33;;;;;;;5.60;1.70;;;;;;;9.86;100.00;98318.08;109161;1253;68986;-64
2023/10/30 04:54:21;;;;;;;4.90;1.40;;;;;;;9.86;100.00;98318.32;109403;1253;70315;-61
2023/10/30 04:57:08;;;;;;;6.00;1.80;;;;;;;9.85;100.00;98326.21;109088;1253;59766;-62
2023/10/30 04:59:56;;;;;;;8.20;1.80;;;;;;;9.85;100.00;98323.67;109150;1253;61621;-63
2023/10/30 05:02:48;;;;;;;7.10;2.10;;;;;;;9.86;100.00;98319.88;108429;1254;1014859;-63
2023/10/30 05:05:36;;;;;;;5.80;1.60;;;;;;;9.86;100.00;98320.74;109198;1253;67931;-64
2023/10/30 05:08:24;;;;;;;5.30;1.70;;;;;;;9.86;100.00;98333.27;109439;1253;71845;-62
2023/10/30 05:11:12;;;;;;;6.60;1.50;;;;;;;9.88;100.00;98331.05;109450;1253;59608;-65
2023/10/30 05:13:59;;;;;;;6.20;1.50;;;;;;;9.88;100.00;98321.27;109316;1253;58478;-64
2023/10/30 05:16:47;;;;;;;7.70;1.60;;;;;;;9.89;100.00;98329.49;109343;1253;71995;-62
2023/10/30 05:19:35;;;;;;;4.80;1.40;;;;;;;9.90;100.00;98332.61;109441;1253;67612;-63
2023/10/30 05:22:24;;;;;;;6.40;1.60;;;;;;;9.85;100.00;98313.55;109424;1253;73566;-64
2023/10/30 05:25:12;;;;;;;6.10;1.50;;;;;;;9.89;100.00;98327.89;109346;1253;59385;-63
2023/10/30 05:27:59;;;;;;;5.20;1.50;;;;;;;9.88;100.00;98328.36;109547;1253;59089;-63
2023/10/30 05:30:48;;;;;;;6.00;1.90;;;;;;;9.88;100.00;98326.40;109348;1253;71856;-63
2023/10/30 05:33:36;;;;;;;5.90;1.70;;;;;;;9.89;100.00;98339.75;109494;1253;66717;-64
2023/10/30 05:36:23;;;;;;;6.90;1.80;;;;;;;9.88;100.00;98344.27;109484;1253;72778;-64
2023/10/30 05:39:11;;;;;;;6.50;1.60;;;;;;;9.89;100.00;98339.92;109394;1254;59396;-63
2023/10/30 05:41:59;;;;;;;8.10;1.70;;;;;;;9.89;100.00;98332.45;109557;1253;59046;-62
2023/10/30 05:44:46;;;;;;;8.10;1.80;;;;;;;9.89;100.00;98343.09;109498;1253;72206;-63
2023/10/30 05:47:34;;;;;;;6.30;1.90;;;;;;;9.88;100.00;98347.66;109498;1253;68875;-63
2023/10/30 05:50:22;;;;;;;5.40;1.60;;;;;;;9.88;100.00;98343.75;109333;1253;71502;-62
2023/10/30 05:53:09;;;;;;;7.40;2.30;;;;;;;9.89;100.00;98360.31;109460;1253;59609;-63
2023/10/30 05:55:57;;;;;;;7.00;2.20;;;;;;;9.90;100.00;98354.05;109220;1253;59481;-61
2023/10/30 05:58:44;;;;;;;7.00;1.70;;;;;;;9.90;100.00;98365.50;109498;1253;72331;-65
2023/10/30 06:01:32;;;;;;;7.60;1.80;;;;;;;9.91;100.00;98368.66;109491;1253;67830;-62
2023/10/30 06:04:20;;;;;;;5.70;1.70;;;;;;;9.92;100.00;98379.39;109476;1253;71460;-63
2023/10/30 06:07:08;;;;;;;5.90;1.60;;;;;;;9.92;100.00;98377.41;109356;1253;59671;-65
2023/10/30 06:09:55;;;;;;;7.10;2.20;;;;;;;9.92;100.00;98379.70;109244;1253;61073;-62
2023/10/30 06:12:44;;;;;;;6.60;1.90;;;;;;;9.93;100.00;98377.87;109525;1253;71024;-63
2023/10/30 06:15:32;;;;;;;6.10;1.60;;;;;;;9.95;100.00;98378.35;109451;1253;67655;-63
2023/10/30 06:18:19;;;;;;;6.20;1.60;;;;;;;9.99;100.00;98386.05;109308;1253;72548;-64
2023/10/30 06:21:10;;;;;;;8.80;2.00;;;;;;;10.02;100.00;98393.58;109361;1253;59480;-61
2023/10/30 06:23:58;;;;;;;6.00;1.90;;;;;;;10.04;100.00;98390.27;109399;1253;58339;-62
2023/10/30 06:26:45;;;;;;;6.40;1.60;;;;;;;10.09;100.00;98393.39;109217;1253;70040;-65
2023/10/30 06:29:33;;;;;;;6.70;1.70;;;;;;;10.13;100.00;98390.09;109451;1253;68902;-64
2023/10/30 06:32:21;;;;;;;6.50;1.60;;;;;;;10.16;100.00;98367.85;109297;1253;72391;-63
2023/10/30 06:35:08;;;;;;;5.60;1.40;;;;;;;10.18;100.00;98384.33;109311;1253;59903;-64
2023/10/30 06:37:56;;;;;;;6.30;1.70;;;;;;;10.19;100.00;98405.64;109316;1253;60390;-63
2023/10/30 06:40:43;;;;;;;6.20;1.60;;;;;;;10.22;100.00;98398.45;109311;1253;73521;-62
2023/10/30 06:43:32;;;;;;;6.80;1.60;;;;;;;10.27;100.00;98414.30;109398;1253;66735;-63
2023/10/30 06:46:20;;;;;;;6.20;1.50;;;;;;;10.35;100.00;98426.36;109288;1253;72689;-61
2023/10/30 06:49:09;;;;;;;8.40;1.80;;;;;;;10.47;100.00;98412.92;109493;1253;59294;-61
2023/10/30 06:51:57;;;;;;;8.10;1.60;;;;;;;10.58;100.00;98411.29;109459;1253;60049;-64
2023/10/30 06:54:44;;;;;;;7.40;1.60;;;;;;;10.66;100.00;98415.02;109511;1253;72576;-66
2023/10/30 06:57:33;;;;;;;6.30;1.60;;;;;;;10.72;100.00;98434.40;109373;1253;66411;-64
2023/10/30 07:00:23;;;;;;;7.40;1.90;;;;;;;10.76;99.94;98440.42;109520;1253;71500;-63
2023/10/30 07:03:11;;;;;;;6.60;1.70;;;;;;;10.87;99.57;98442.27;109179;1253;59254;-61
2023/10/30 07:05:59;;;;;;;6.60;1.60;;;;;;;11.03;99.42;98458.89;109491;1253;60145;-63
2023/10/30 07:08:46;;;;;;;6.10;1.40;;;;;;;11.20;98.69;98445.20;109435;1253;73434;-64
2023/10/30 07:11:36;;;;;;;5.00;1.70;;;;;;;11.38;97.91;98442.83;109280;1253;67943;-63
2023/10/30 07:14:24;;;;;;;7.30;1.60;;;;;;;11.55;96.90;98448.28;109305;1253;72462;-63
2023/10/30 07:17:11;;;;;;;7.50;1.80;;;;;;;11.68;95.78;98451.48;109449;1253;57240;-63
2023/10/30 07:19:59;;;;;;;7.00;1.60;;;;;;;11.74;93.64;98460.98;109168;1253;60391;-62
2023/10/30 07:22:46;;;;;;;6.60;1.50;;;;;;;12.18;94.47;98461.27;109440;1253;70665;-64
2023/10/30 07:25:34;;;;;;;6.90;1.40;;;;;;;12.36;90.28;98458.57;109361;1253;67712;-64
2023/10/30 07:28:22;;;;;;;5.40;1.50;;;;;;;12.31;89.84;98463.88;109357;1253;72493;-62
2023/10/30 07:31:10;;;;;;;6.00;1.60;;;;;;;12.33;89.77;98471.92;109358;1252;57937;-65
2023/10/30 07:34:01;;;;;;;5.20;1.50;;;;;;;13.12;88.45;98476.98;109404;1253;58910;-63
2023/10/30 07:36:50;;;;;;;7.00;1.70;;;;;;;14.77;82.70;98475.05;109201;1253;72223;-64
2023/10/30 07:39:37;;;;;;;5.80;1.80;;;;;;;16.34;77.92;98474.60;109361;1253;66706;-62
2023/10/30 07:42:25;;;;;;;8.50;1.60;;;;;;;17.62;69.78;98477.08;109444;1253;72849;-63
2023/10/30 07:45:13;;;;;;;5.70;1.80;;;;;;;18.97;65.87;98483.05;109275;1256;58590;-62
2023/10/30 07:48:01;;;;;;;5.50;1.30;;;;;;;20.23;61.18;98480.27;109352;1253;58709;-63
2023/10/30 07:50:50;;;;;;;6.40;1.70;;;;;;;21.22;54.21;98484.40;109501;1253;70633;-63
2023/10/30 07:53:38;;;;;;;6.00;1.40;;;;;;;21.24;52.20;98496.07;109490;1253;67656;-63
2023/10/30 07:56:27;;;;;;;6.80;1.50;;;;;;;20.13;52.85;98503.48;109465;1253;74137;-64
2023/10/30 07:59:14;;;;;;;7.50;1.60;;;;;;;19.59;56.16;98509.70;109328;1253;58962;-62
2023/10/30 08:02:03;;;;;;;6.30;1.30;;;;;;;19.53;56.34;98511.31;109368;1253;59028;-63
2023/10/30 08:04:51;;;;;;;9.20;1.60;;;;;;;18.93;57.98;98515.05;109366;1253;71450;-63
2023/10/30 08:07:44;;;;;;;6.40;1.50;;;;;;;18.15;58.57;98520.19;109341;1253;67984;-63
2023/10/30 08:10:32;;;;;;;5.60;1.20;;;;;;;17.34;61.18;98522.67;109484;1253;72351;-62
2023/10/30 08:13:20;;;;;;;7.20;1.40;;;;;;;16.77;62.88;98524.70;109467;1253;58001;-64
2023/10/30 08:16:10;;;;;;;7.00;1.70;;;;;;;16.33;64.48;98521.11;109449;1253;61465;-61
2023/10/30 08:18:58;;;;;;;8.70;1.60;;;;;;;15.75;66.85;98542.19;109337;1253;70713;-63
2023/10/30 08:21:45;;;;;;;7.10;1.40;;;;;;;15.29;68.80;98540.83;109524;1253;67629;-62
2023/10/30 08:24:33;;;;;;;8.00;1.40;;;;;;;14.84;70.57;98538.77;109476;1253;71425;-64
2023/10/30 08:27:21;;;;;;;6.40;1.50;;;;;;;14.53;71.97;98539.48;109233;1253;57677;-64
2023/10/30 08:30:10;;;;;;;5.90;1.50;;;;;;;14.53;73.05;98552.51;109467;1253;60361;-61
2023/10/30 08:32:58;;;;;;;6.40;1.60;;;;;;;14.65;72.71;98554.59;109505;1253;71287;-63
2023/10/30 08:35:47;;;;;;;7.10;2.00;;;;;;;14.64;72.97;98549.52;109315;1254;68018;-63
2023/10/30 08:38:38;;;;;;;7.10;1.50;;;;;;;14.43;73.23;98553.55;109335;1253;71597;-62
2023/10/30 08:41:26;;;;;;;7.20;1.60;;;;;;;14.33;73.88;98554.89;109460;1253;57456;-66
2023/10/30 08:44:14;;;;;;;6.50;1.50;;;;;;;15.33;71.79;98563.73;109206;1253;60159;-64
2023/10/30 08:47:02;;;;;;;7.30;2.20;;;;;;;16.45;67.89;98563.28;109449;1253;72689;-62
2023/10/30 08:49:49;;;;;;;7.30;1.70;;;;;;;17.73;63.65;98563.63;109353;1253;67676;-64
2023/10/30 08:52:37;;;;;;;6.50;1.70;;;;;;;19.91;60.08;98575.20;109391;1253;72949;-66
2023/10/30 08:55:27;;;;;;;7.30;1.70;;;;;;;21.26;53.08;98564.17;109184;1253;57683;-63
2023/10/30 08:58:15;;;;;;;9.30;1.80;;;;;;;22.06;48.76;98574.13;109313;1253;61276;-65
2023/10/30 09:01:03;;;;;;;7.90;1.90;;;;;;;23.23;45.74;98571.20;109327;1253;72154;-62
2023/10/30 09:03:52;;;;;;;7.00;1.50;;;;;;;23.27;44.38;98570.63;109427;1253;67539;-64
2023/10/30 09:06:42;;;;;;;9.40;1.80;;;;;;;24.09;41.90;98578.50;109353;1253;73367;-65
2023/10/30 09:09:30;;;;;;;7.10;1.60;;;;;;;24.95;40.99;98571.09;109334;1253;58096;-62
2023/10/30 09:12:17;;;;;;;6.70;1.60;;;;;;;25.01;39.84;98579.79;109319;1253;58552;-61
2023/10/30 09:15:08;;;;;;;6.20;1.30;;;;;;;25.27;37.90;98593.05;109374;1253;72819;-64
2023/10/30 09:17:55;;;;;;;5.70;1.20;;;;;;;24.14;39.71;98607.37;109511;1253;66450;-66
2023/10/30 09:20:43;;;;;;;6.10;1.40;;;;;;;24.21;39.91;98598.53;109410;1253;72360;-63
2023/10/30 09:23:31;;;;;;;7.00;1.40;;;;;;;24.58;38.84;98602.89;109179;1253;180545;-62
2023/10/30 09:26:18;;;;;;;7.60;1.40;;;;;;;24.34;38.72;98602.23;109342;1253;58926;-62
2023/10/30 09:29:06;;;;;;;5.90;1.50;;;;;;;24.05;39.04;98602.58;109342;1253;71943;-61
2023/10/30 09:31:55;;;;;;;7.40;1.20;;;;;;;24.92;38.84;98607.73;109450;1253;67001;-61
2023/10/30 09:34:43;;;;;;;5.20;1.10;;;;;;;24.18;39.04;98602.23;109450;1253;73564;-64
2023/10/30 09:37:31;;;;;;;7.70;1.30;;;;;;;23.91;39.00;98606.23;109454;1253;57774;-62
2023/10/30 09:40:22;;;;;;;6.80;1.40;;;;;;;23.75;39.41;98608.67;109481;1253;58976;-62
2023/10/30 09:43:11;;;;;;;7.00;1.30;;;;;;;23.23;40.09;98607.68;109451;1253;73447;-63
2023/10/30 09:46:02;;;;;;;5.50;1.10;;;;;;;24.43;38.70;98620.77;109356;1253;67640;-64
2023/10/30 09:48:52;;;;;;;6.50;1.20;;;;;;;23.24;39.37;98613.20;109494;1253;72684;-63
2023/10/30 09:51:43;;;;;;;7.10;1.30;;;;;;;23.02;40.13;98616.15;109479;1253;57725;-63
2023/10/30 09:54:34;;;;;;;7.20;1.60;;;;;;;23.30;40.05;98621.63;109494;1253;58706;-62
2023/10/30 09:57:22;;;;;;;6.60;1.50;;;;;;;22.91;40.74;98619.04;109476;1253;72381;-63
2023/10/30 10:00:12;;;;;;;6.30;1.50;;;;;;;21.92;42.10;98617.61;109443;1253;68848;-61
2023/10/30 10:02:59;;;;;;;5.80;1.20;;;;;;;21.60;42.80;98617.04;109320;1253;72817;-64
2023/10/30 10:06:00;;;;;;;5.90;1.40;;;;;;;22.63;40.91;98629.91;109410;1253;57893;-62
2023/10/30 10:08:47;;;;;;;6.10;1.30;;;;;;;23.32;40.59;98626.77;109252;1253;59211;-63
2023/10/30 10:11:36;;;;;;;6.90;1.30;;;;;;;22.77;40.25;98630.45;109363;1253;70367;-68
2023/10/30 10:14:24;;;;;;;6.50;1.30;;;;;;;21.91;42.62;98627.89;109528;1253;67807;-63
2023/10/30 10:17:11;;;;;;;7.40;1.40;;;;;;;21.13;43.65;98641.70;109355;1253;73584;-64
2023/10/30 10:20:04;;;;;;;8.80;1.50;;;;;;;19.97;45.63;98643.52;109482;1253;57614;-64
2023/10/30 10:22:51;;;;;;;6.80;1.50;;;;;;;20.17;46.27;98649.52;109347;1253;60918;-65
2023/10/30 10:25:54;;;;;;;6.70;1.50;;;;;;;21.09;45.01;98649.27;109474;1253;71994;-63
2023/10/30 10:28:48;;;;;;;6.90;1.50;;;;;;;21.45;43.74;98647.77;109368;1253;68851;-63
2023/10/30 10:31:40;;;;;;;6.80;1.50;;;;;;;21.97;43.24;98650.14;109352;1253;72525;-66
2023/10/30 10:34:31;;;;;;;7.00;1.50;;;;;;;22.66;42.01;98651.27;109459;1253;57721;-64
2023/10/30 10:37:19;;;;;;;6.40;1.70;;;;;;;23.15;39.64;98647.96;109510;1253;60262;-64
2023/10/30 10:40:08;;;;;;;8.20;1.60;;;;;;;24.31;38.49;98651.92;109490;1253;72905;-63
2023/10/30 10:42:56;;;;;;;7.40;1.50;;;;;;;25.35;36.09;98657.53;109353;1252;66378;-64
2023/10/30 10:45:50;;;;;;;7.20;1.40;;;;;;;25.37;35.09;98656.45;109345;1253;71106;-63
2023/10/30 10:48:37;;;;;;;6.20;1.40;;;;;;;24.54;36.29;98662.25;109283;1253;57036;-64
2023/10/30 10:51:37;;;;;;;6.50;1.40;;;;;;;24.92;36.77;98666.61;109342;1253;59317;-62
2023/10/30 10:54:32;;;;;;;6.40;1.40;;;;;;;25.51;35.74;98661.73;109405;1253;73406;-63
2023/10/30 10:57:25;;;;;;;6.60;1.60;;;;;;;25.52;35.73;98659.47;109366;1254;67627;-62
2023/10/30 11:00:15;;;;;;;7.00;1.30;;;;;;;25.10;35.50;98662.92;109315;1253;72199;-62
2023/10/30 11:03:08;;;;;;;6.70;1.40;;;;;;;23.79;37.29;98668.86;109465;1253;57608;-61
2023/10/30 11:05:56;;;;;;;6.50;1.60;;;;;;;22.88;38.32;98672.98;109264;1253;59225;-64
2023/10/30 11:09:14;;;;;;;7.50;1.80;;;;;;;21.38;40.80;98686.77;109527;1253;71885;-66
2023/10/30 11:12:48;;;;;;;5.60;1.30;;;;;;;21.61;41.13;98679.70;109376;1253;68931;-65
2023/10/30 11:15:45;;;;;;;7.00;1.40;;;;;;;21.12;42.36;98679.14;108776;1262;73735;-62
2023/10/30 11:18:33;;;;;;;6.60;1.40;;;;;;;20.66;43.56;98677.68;108795;1262;57324;-64
2023/10/30 11:21:26;;;;;;;8.60;1.70;;;;;;;21.23;43.14;98669.48;108841;1262;60589;-64
2023/10/30 11:24:36;;;;;;;6.20;1.80;;;;;;;21.73;42.08;98656.72;108833;1262;73295;-62
2023/10/30 11:27:25;;;;;;;6.90;1.70;;;;;;;21.77;42.19;98660.29;108684;1262;66623;-65
2023/10/30 11:30:12;;;;;;;7.30;1.40;;;;;;;20.94;43.09;98677.80;108796;1262;71653;-61
2023/10/30 11:33:01;;;;;;;7.50;1.40;;;;;;;20.47;44.17;98670.73;108815;1262;57690;-61
2023/10/30 11:36:18;;;;;;;7.60;1.60;;;;;;;20.38;44.74;98674.56;108808;1262;60655;-62
2023/10/30 11:39:10;;;;;;;8.70;1.50;;;;;;;20.21;45.28;98668.35;108809;1262;71893;-66
2023/10/30 11:41:59;;;;;;;6.80;1.50;;;;;;;20.22;45.71;98670.73;108849;1262;66953;-63
2023/10/30 11:44:46;;;;;;;6.40;1.40;;;;;;;19.84;46.31;98669.29;108806;1262;71091;-61
2023/10/30 11:47:35;;;;;;;7.40;1.40;;;;;;;19.49;46.33;98672.66;108773;1262;56991;-62
2023/10/30 11:50:38;;;;;;;5.80;1.20;;;;;;;18.93;47.24;98674.20;109140;1253;58742;-63
2023/10/30 11:53:26;;;;;;;6.80;1.70;;;;;;;18.46;48.64;98671.58;109335;1253;73346;-63
2023/10/30 11:56:16;;;;;;;10.50;1.80;;;;;;;18.02;49.71;98669.91;109476;1253;67952;-62
2023/10/30 11:59:04;;;;;;;6.50;1.50;;;;;;;17.71;50.96;98665.52;109330;1253;72474;-64
2023/10/30 12:01:53;;;;;;;6.90;1.30;;;;;;;17.56;52.06;98671.55;109317;1253;58733;-62
2023/10/30 12:04:41;;;;;;;9.00;1.50;;;;;;;17.28;53.02;98678.36;109492;1253;60100;-62
2023/10/30 12:07:28;;;;;;;8.30;1.80;;;;;;;16.95;54.04;98689.86;109259;1254;71999;-63
2023/10/30 12:10:18;;;;;;;8.90;1.60;;;;;;;16.66;55.19;98691.35;109271;1253;67758;-62
2023/10/30 12:13:05;;;;;;;7.10;1.50;;;;;;;16.42;55.52;98686.52;109475;1253;72812;-63
2023/10/30 12:15:53;;;;;;;6.00;1.30;;;;;;;16.19;56.28;98691.04;109514;1253;57896;-65
2023/10/30 12:18:40;;;;;;;7.90;1.70;;;;;;;15.97;57.00;98690.98;109485;1253;61070;-62
2023/10/30 12:21:30;;;;;;;6.90;1.60;;;;;;;15.82;57.98;98694.11;109350;1253;70998;-63
2023/10/30 12:24:24;;;;;;;7.10;1.60;;;;;;;15.69;58.40;98694.60;109521;1253;67593;-62
2023/10/30 12:27:21;;;;;;;7.10;1.50;;;;;;;15.52;59.33;98703.66;109161;1253;72305;-63
2023/10/30 12:30:17;;;;;;;8.30;1.60;;;;;;;15.44;59.87;98706.17;109274;1257;56959;-61
2023/10/30 12:33:04;;;;;;;6.00;1.50;;;;;;;15.39;60.22;98706.23;109379;1253;60093;-61
2023/10/30 12:35:56;;;;;;;5.50;1.40;;;;;;;15.32;60.89;98708.79;109339;1253;72056;-64
2023/10/30 12:38:48;;;;;;;8.40;1.80;;;;;;;15.24;61.79;98698.33;109193;1253;66539;-61
2023/10/30 12:41:36;;;;;;;5.80;1.50;;;;;;;15.08;62.65;98686.88;109505;1253;72827;-61
2023/10/30 12:44:24;;;;;;;8.10;1.50;;;;;;;14.87;63.44;98687.11;109497;1253;57228;-63
2023/10/30 12:47:12;;;;;;;6.90;1.30;;;;;;;14.79;63.70;98686.36;109498;1253;59733;-60
2023/10/30 12:49:59;;;;;;;10.00;1.90;;;;;;;14.76;64.15;98686.40;109516;1253;71995;-62
2023/10/30 12:52:47;;;;;;;7.20;1.60;;;;;;;14.78;64.40;98684.20;109303;1253;67810;-62
2023/10/30 12:55:35;;;;;;;8.60;1.80;;;;;;;14.81;64.42;98686.73;109241;1253;72670;-63
2023/10/30 12:58:23;;;;;;;6.40;1.60;;;;;;;14.84;64.69;98689.85;109487;1253;58197;-62
2023/10/30 13:01:13;;;;;;;7.20;1.70;;;;;;;14.81;65.07;98688.90;109442;1253;58897;-65
2023/10/30 13:04:01;;;;;;;6.80;1.60;;;;;;;14.77;65.20;98693.82;109500;1253;72344;-62